createdAt,value
2023-02-17T00:01:29.372Z,18.83
2023-02-17T00:04:00.107Z,18.81
2023-02-17T00:06:30.704Z,18.81
2023-02-17T00:08:59.619Z,18.82
2023-02-17T00:11:28.560Z,18.83
2023-02-17T00:13:57.086Z,18.80
2023-02-17T00:16:27.815Z,18.81
2023-02-17T00:18:58.573Z,18.81
2023-02-17T00:21:30.676Z,18.80
2023-02-17T00:23:59.743Z,18.81
2023-02-17T00:26:28.520Z,18.80
2023-02-17T00:28:56.974Z,18.79
2023-02-17T00:31:25.472Z,18.79
2023-02-17T00:33:56.340Z,18.79
2023-02-17T00:36:25.995Z,18.78
2023-02-17T00:38:57.925Z,18.79
2023-02-17T00:41:27.824Z,18.79
2023-02-17T00:43:59.560Z,18.79
2023-02-17T00:46:28.563Z,18.79
2023-02-17T00:48:57.097Z,18.79
2023-02-17T00:51:26.763Z,18.79
2023-02-17T00:53:56.557Z,18.78
2023-02-17T00:56:24.964Z,18.79
2023-02-17T00:58:53.390Z,18.78
2023-02-17T01:01:21.903Z,18.77
2023-02-17T01:03:50.280Z,18.77
2023-02-17T01:06:24.590Z,18.78
2023-02-17T01:08:53.479Z,18.80
2023-02-17T01:11:26.502Z,18.80
2023-02-17T01:13:55.729Z,18.81
2023-02-17T01:16:25.934Z,18.81
2023-02-17T01:18:55.056Z,18.82
2023-02-17T01:21:25.916Z,18.81
2023-02-17T01:23:56.734Z,18.82
2023-02-17T01:26:28.832Z,18.81
2023-02-17T01:28:57.853Z,18.82
2023-02-17T01:31:28.141Z,18.83
2023-02-17T01:33:58.176Z,18.83
2023-02-17T01:36:27.281Z,18.84
2023-02-17T01:38:55.864Z,18.84
2023-02-17T01:41:28.184Z,18.83
2023-02-17T01:44:09.215Z,18.83
2023-02-17T01:46:40.410Z,18.84
2023-02-17T01:49:18.493Z,18.84
2023-02-17T01:51:53.762Z,18.84
2023-02-17T01:54:27.908Z,18.84
2023-02-17T01:56:59.163Z,18.85
2023-02-17T01:59:29.809Z,18.84
2023-02-17T02:02:01.682Z,18.84
2023-02-17T02:04:34.534Z,18.84
2023-02-17T02:07:06.587Z,18.83
2023-02-17T02:09:40.119Z,18.84
2023-02-17T02:12:19.388Z,18.83
2023-02-17T02:14:49.633Z,18.83
2023-02-17T02:17:27.120Z,18.83
2023-02-17T02:20:17.936Z,18.83
2023-02-17T02:23:25.196Z,18.83
2023-02-17T02:26:21.215Z,18.83
2023-02-17T02:29:15.559Z,18.83
2023-02-17T02:31:50.951Z,18.84
2023-02-17T02:34:23.370Z,18.83
2023-02-17T02:36:58.021Z,18.83
2023-02-17T02:39:31.269Z,18.82
2023-02-17T02:42:03.123Z,18.82
2023-02-17T02:44:31.868Z,18.81
2023-02-17T02:47:02.812Z,18.83
2023-02-17T02:49:36.578Z,18.82
2023-02-17T02:52:15.480Z,18.83
2023-02-17T02:54:53.729Z,18.81
2023-02-17T02:57:37.824Z,18.81
2023-02-17T03:00:16.490Z,18.81
2023-02-17T03:02:52.596Z,18.81
2023-02-17T03:05:29.802Z,18.81
2023-02-17T03:08:03.996Z,18.82
2023-02-17T03:10:32.739Z,18.82
2023-02-17T03:13:02.882Z,18.81
2023-02-17T03:15:34.216Z,18.82
2023-02-17T03:18:04.514Z,18.82
2023-02-17T03:20:39.344Z,18.81
2023-02-17T03:23:08.697Z,18.81
2023-02-17T03:25:37.646Z,18.80
2023-02-17T03:28:06.314Z,18.81
2023-02-17T03:30:34.799Z,18.81
2023-02-17T03:33:03.440Z,18.81
2023-02-17T03:35:32.046Z,18.80
2023-02-17T03:38:01.916Z,18.80
2023-02-17T03:40:30.578Z,18.80
2023-02-17T03:42:59.191Z,18.80
2023-02-17T03:45:27.674Z,18.80
2023-02-17T03:47:56.149Z,18.80
2023-02-17T03:50:24.592Z,18.81
2023-02-17T03:52:53.217Z,18.80
2023-02-17T03:55:23.053Z,18.80
2023-02-17T03:57:51.454Z,18.80
2023-02-17T04:00:21.780Z,18.80
2023-02-17T04:02:52.465Z,18.80
2023-02-17T04:05:20.883Z,18.79
2023-02-17T04:07:49.408Z,18.79
2023-02-17T04:10:18.136Z,18.79
2023-02-17T04:12:47.999Z,18.79
2023-02-17T04:15:16.406Z,18.78
2023-02-17T04:17:44.856Z,18.79
2023-02-17T04:20:14.063Z,18.80
2023-02-17T04:22:42.670Z,18.80
2023-02-17T04:25:11.111Z,18.79
2023-02-17T04:27:39.558Z,18.79
2023-02-17T04:30:12.411Z,18.79
2023-02-17T04:32:41.024Z,18.79
2023-02-17T04:35:09.537Z,18.78
2023-02-17T04:37:38.020Z,18.79
2023-02-17T04:40:10.279Z,18.78
2023-02-17T04:42:39.324Z,18.78
2023-02-17T04:45:10.269Z,18.77
2023-02-17T04:47:38.742Z,18.77
2023-02-17T04:50:09.795Z,18.77
2023-02-17T04:52:38.862Z,18.75
2023-02-17T04:55:08.678Z,18.75
2023-02-17T04:57:37.183Z,18.75
2023-02-17T05:00:07.444Z,18.75
2023-02-17T05:02:37.301Z,18.74
2023-02-17T05:05:05.972Z,18.73
2023-02-17T05:07:34.464Z,18.72
2023-02-17T05:10:03.098Z,18.73
2023-02-17T05:12:31.532Z,18.77
2023-02-17T05:14:59.984Z,18.81
2023-02-17T05:17:28.482Z,18.87
2023-02-17T05:19:58.378Z,18.95
2023-02-17T05:22:27.418Z,19.01
2023-02-17T05:24:55.911Z,19.07
2023-02-17T05:27:24.361Z,19.10
2023-02-17T05:29:52.896Z,19.12
2023-02-17T05:32:21.286Z,19.13
2023-02-17T05:34:49.718Z,19.13
2023-02-17T05:37:19.751Z,19.14
2023-02-17T05:39:48.224Z,19.16
2023-02-17T05:42:16.715Z,19.16
2023-02-17T05:44:45.218Z,19.19
2023-02-17T05:47:13.717Z,19.20
2023-02-17T05:49:42.156Z,19.20
2023-02-17T05:52:10.632Z,19.19
2023-02-17T05:54:40.511Z,19.19
2023-02-17T05:57:09.068Z,19.20
2023-02-17T05:59:37.538Z,19.20
2023-02-17T06:02:06.046Z,19.18
2023-02-17T06:04:34.681Z,19.19
2023-02-17T06:07:03.385Z,19.19
2023-02-17T06:09:32.398Z,19.14
2023-02-17T06:12:02.200Z,19.15
2023-02-17T06:14:30.663Z,19.16
2023-02-17T06:17:01.160Z,19.19
2023-02-17T06:19:30.071Z,19.21
2023-02-17T06:21:58.570Z,19.24
2023-02-17T06:24:27.076Z,19.24
2023-02-17T06:26:55.565Z,19.26
2023-02-17T06:29:25.348Z,19.25
2023-02-17T06:31:53.828Z,19.26
2023-02-17T06:34:22.307Z,19.24
2023-02-17T06:36:50.877Z,19.23
2023-02-17T06:39:19.360Z,19.22
2023-02-17T06:41:48.008Z,19.19
2023-02-17T06:44:16.518Z,19.16
2023-02-17T06:46:46.895Z,19.13
2023-02-17T06:49:15.904Z,19.08
2023-02-17T06:51:44.361Z,19.08
2023-02-17T06:54:12.878Z,19.06
2023-02-17T06:56:41.366Z,19.08
2023-02-17T06:59:09.806Z,19.10
2023-02-17T07:01:38.309Z,19.12
2023-02-17T07:04:08.180Z,19.13
2023-02-17T07:06:36.596Z,19.18
2023-02-17T07:09:05.154Z,19.20
2023-02-17T07:11:33.591Z,19.21
2023-02-17T07:14:02.719Z,19.22
2023-02-17T07:16:31.476Z,19.23
2023-02-17T07:19:00.139Z,19.25
2023-02-17T07:21:30.009Z,19.25
2023-02-17T07:23:58.510Z,19.27
2023-02-17T07:26:27.005Z,19.27
2023-02-17T07:28:55.487Z,19.27
2023-02-17T07:31:24.057Z,19.27
2023-02-17T07:33:52.597Z,19.28
2023-02-17T07:36:21.094Z,19.27
2023-02-17T07:38:51.146Z,19.29
2023-02-17T07:41:21.688Z,19.29
2023-02-17T07:43:50.383Z,19.29
2023-02-17T07:46:18.897Z,19.29
2023-02-17T07:48:47.815Z,19.29
2023-02-17T07:51:18.094Z,19.28
2023-02-17T07:53:46.618Z,19.29
2023-02-17T07:56:21.436Z,19.29
2023-02-17T07:58:50.212Z,19.27
2023-02-17T08:01:20.512Z,19.23
2023-02-17T08:03:49.635Z,19.23
2023-02-17T08:06:20.493Z,19.22
2023-02-17T08:09:07.585Z,19.25
2023-02-17T08:11:55.049Z,19.25
2023-02-17T08:14:25.501Z,19.25
2023-02-17T08:16:54.299Z,19.25
2023-02-17T08:19:23.138Z,19.23
2023-02-17T08:21:51.653Z,19.21
2023-02-17T08:24:21.289Z,19.17
2023-02-17T08:26:51.197Z,19.13
2023-02-17T08:29:20.323Z,19.11
2023-02-17T08:31:53.709Z,19.11
2023-02-17T08:34:22.183Z,19.12
2023-02-17T08:36:50.669Z,19.14
2023-02-17T08:39:19.353Z,19.16
2023-02-17T08:41:47.793Z,19.17
2023-02-17T08:44:20.881Z,19.18
2023-02-17T08:46:50.781Z,19.19
2023-02-17T08:49:21.948Z,19.21
2023-02-17T08:51:52.098Z,19.22
2023-02-17T08:54:20.851Z,19.22
2023-02-17T08:56:49.297Z,19.23
2023-02-17T08:59:19.137Z,19.23
2023-02-17T09:01:47.705Z,19.23
2023-02-17T09:04:16.962Z,19.25
2023-02-17T09:06:47.644Z,19.26
2023-02-17T09:09:18.106Z,19.27
2023-02-17T09:11:46.919Z,19.28
2023-02-17T09:14:15.607Z,19.28
2023-02-17T09:16:45.462Z,19.30
2023-02-17T09:19:13.956Z,19.31
2023-02-17T09:21:42.473Z,19.30
2023-02-17T09:24:11.186Z,19.32
2023-02-17T09:26:39.820Z,19.32
2023-02-17T09:29:08.675Z,19.32
2023-02-17T09:31:37.904Z,19.33
2023-02-17T09:34:07.829Z,19.33
2023-02-17T09:36:41.374Z,19.34
2023-02-17T09:39:13.426Z,19.33
2023-02-17T09:41:45.218Z,19.32
2023-02-17T09:44:21.804Z,19.29
2023-02-17T09:47:02.095Z,19.29
2023-02-17T09:49:39.289Z,19.27
2023-02-17T09:52:15.309Z,19.25
2023-02-17T09:54:54.892Z,19.24
2023-02-17T09:57:28.408Z,19.22
2023-02-17T10:00:00.953Z,19.19
2023-02-17T10:02:37.774Z,19.18
2023-02-17T10:05:12.516Z,19.14
2023-02-17T10:07:45.477Z,19.13
2023-02-17T10:10:19.481Z,19.11
2023-02-17T10:12:54.665Z,19.12
2023-02-17T10:15:26.548Z,19.11
2023-02-17T10:18:00.585Z,19.10
2023-02-17T10:20:34.696Z,19.09
2023-02-17T10:23:05.512Z,19.08
2023-02-17T10:25:49.747Z,19.08
2023-02-17T10:28:23.744Z,19.08
2023-02-17T10:31:01.762Z,19.08
2023-02-17T10:33:36.262Z,19.07
2023-02-17T10:36:17.854Z,19.05
2023-02-17T10:38:52.211Z,19.06
2023-02-17T10:41:24.888Z,19.06
2023-02-17T10:43:53.962Z,19.05
2023-02-17T10:46:29.982Z,19.05
2023-02-17T10:49:00.607Z,19.04
2023-02-17T10:51:31.689Z,19.04
2023-02-17T10:54:05.287Z,19.04
2023-02-17T10:56:39.366Z,19.02
2023-02-17T10:59:12.976Z,19.04
2023-02-17T11:01:42.535Z,19.03
2023-02-17T11:04:13.951Z,19.03
2023-02-17T11:06:46.195Z,19.02
2023-02-17T11:09:21.095Z,19.00
2023-02-17T11:11:58.446Z,19.00
2023-02-17T11:14:29.163Z,18.99
2023-02-17T11:17:00.102Z,18.98
2023-02-17T11:19:30.573Z,18.96
2023-02-17T11:22:01.788Z,18.95
2023-02-17T11:24:32.165Z,18.93
2023-02-17T11:27:03.060Z,18.92
2023-02-17T11:29:33.148Z,18.92
2023-02-17T11:32:07.035Z,18.91
2023-02-17T11:34:38.010Z,18.90
2023-02-17T11:37:21.805Z,18.90
2023-02-17T11:39:53.398Z,18.91
2023-02-17T11:42:23.414Z,18.94
2023-02-17T11:44:52.513Z,18.97
2023-02-17T11:47:30.964Z,19.00
2023-02-17T11:50:26.159Z,19.04
2023-02-17T11:53:17.012Z,19.08
2023-02-17T11:55:54.972Z,19.09
2023-02-17T11:58:34.474Z,19.09
2023-02-17T12:01:12.552Z,19.09
2023-02-17T12:03:53.247Z,19.09
2023-02-17T12:06:25.114Z,19.05
2023-02-17T12:09:07.829Z,19.03
2023-02-17T12:11:44.510Z,19.00
2023-02-17T12:14:34.253Z,18.97
2023-02-17T12:17:13.136Z,18.96
2023-02-17T12:19:53.040Z,18.96
2023-02-17T12:22:28.115Z,18.99
2023-02-17T12:25:16.682Z,19.00
2023-02-17T12:27:57.475Z,19.05
2023-02-17T12:30:40.291Z,19.05
2023-02-17T12:33:31.975Z,19.07
2023-02-17T12:36:04.755Z,19.09
2023-02-17T12:38:37.710Z,19.11
2023-02-17T12:41:11.310Z,19.13
2023-02-17T12:43:48.003Z,19.12
2023-02-17T12:46:23.638Z,19.13
2023-02-17T12:48:57.657Z,19.14
2023-02-17T12:51:31.160Z,19.14
2023-02-17T12:54:05.343Z,19.15
2023-02-17T12:56:48.064Z,19.14
2023-02-17T12:59:19.265Z,19.16
2023-02-17T13:02:00.527Z,19.18
2023-02-17T13:04:30.739Z,19.16
2023-02-17T13:07:21.672Z,19.19
2023-02-17T13:09:51.999Z,19.19
2023-02-17T13:12:41.025Z,19.20
2023-02-17T13:15:29.656Z,19.20
2023-02-17T13:18:01.340Z,19.20
2023-02-17T13:20:45.810Z,19.21
2023-02-17T13:23:27.713Z,19.22
2023-02-17T13:26:09.274Z,19.23
2023-02-17T13:28:40.726Z,19.23
2023-02-17T13:31:11.627Z,19.23
2023-02-17T13:33:49.966Z,19.24
2023-02-17T13:36:35.186Z,19.24
2023-02-17T13:39:08.326Z,19.24
2023-02-17T13:41:47.697Z,19.25
2023-02-17T13:44:30.124Z,19.26
2023-02-17T13:47:01.637Z,19.25
2023-02-17T13:49:33.261Z,19.26
2023-02-17T13:52:10.202Z,19.26
2023-02-17T13:54:38.761Z,19.27
2023-02-17T13:57:07.183Z,19.27
2023-02-17T13:59:38.051Z,19.28
2023-02-17T14:02:35.118Z,19.35
2023-02-17T14:05:17.187Z,19.46
2023-02-17T14:07:48.166Z,19.67
2023-02-17T14:10:21.243Z,19.82
2023-02-17T14:12:50.092Z,19.96
2023-02-17T14:15:22.616Z,20.05
2023-02-17T14:17:51.282Z,20.01
2023-02-17T14:20:32.916Z,19.95
2023-02-17T14:23:06.740Z,19.94
2023-02-17T14:25:37.259Z,19.93
2023-02-17T14:28:06.293Z,19.90
2023-02-17T14:30:38.345Z,19.85
2023-02-17T14:33:08.966Z,19.82
2023-02-17T14:35:39.398Z,19.82
2023-02-17T14:38:11.041Z,19.94
2023-02-17T14:40:40.290Z,19.98
2023-02-17T14:43:08.884Z,20.16
2023-02-17T14:45:38.739Z,20.28
2023-02-17T14:48:07.341Z,20.37
2023-02-17T14:50:42.204Z,20.48
2023-02-17T14:53:19.013Z,20.63
2023-02-17T14:55:51.258Z,20.70
2023-02-17T14:58:21.837Z,20.79
2023-02-17T15:00:52.451Z,20.84
2023-02-17T15:03:20.934Z,20.90
2023-02-17T15:05:49.791Z,20.94
2023-02-17T15:08:20.670Z,20.95
2023-02-17T15:10:50.017Z,20.96
2023-02-17T15:13:20.674Z,21.01
2023-02-17T15:15:50.756Z,21.00
2023-02-17T15:18:21.031Z,20.99
2023-02-17T15:20:51.264Z,20.99
2023-02-17T15:23:21.898Z,21.02
2023-02-17T15:25:51.070Z,21.06
2023-02-17T15:28:21.035Z,21.13
2023-02-17T15:30:53.657Z,21.12
2023-02-17T15:33:23.631Z,21.15
2023-02-17T15:35:54.519Z,21.13
2023-02-17T15:38:23.953Z,21.18
2023-02-17T15:40:56.662Z,21.20
2023-02-17T15:43:31.733Z,21.25
2023-02-17T15:46:01.747Z,21.23
2023-02-17T15:48:31.867Z,21.26
2023-02-17T15:51:00.363Z,21.29
2023-02-17T15:53:32.406Z,21.29
2023-02-17T15:56:01.662Z,21.31
2023-02-17T15:58:31.292Z,21.38
2023-02-17T16:01:03.862Z,21.35
2023-02-17T16:03:32.523Z,21.38
2023-02-17T16:06:01.033Z,21.42
2023-02-17T16:08:29.451Z,21.49
2023-02-17T16:10:57.996Z,21.49
2023-02-17T16:13:28.240Z,21.44
2023-02-17T16:15:59.514Z,21.45
2023-02-17T16:18:29.983Z,21.47
2023-02-17T16:20:58.513Z,21.50
2023-02-17T16:23:27.249Z,21.49
2023-02-17T16:25:56.053Z,21.45
2023-02-17T16:28:24.465Z,21.46
2023-02-17T16:30:53.072Z,21.52
2023-02-17T16:33:21.562Z,21.54
2023-02-17T16:35:52.349Z,21.55
2023-02-17T16:38:24.288Z,21.50
2023-02-17T16:40:54.795Z,21.42
2023-02-17T16:43:25.406Z,21.37
2023-02-17T16:45:56.454Z,21.32
2023-02-17T16:48:27.362Z,21.30
2023-02-17T16:50:57.413Z,21.25
2023-02-17T16:53:25.862Z,21.20
2023-02-17T16:55:56.133Z,21.16
2023-02-17T16:58:26.798Z,21.13
2023-02-17T17:00:56.958Z,21.13
2023-02-17T17:03:25.714Z,21.12
2023-02-17T17:05:54.769Z,21.10
2023-02-17T17:08:24.554Z,21.10
2023-02-17T17:10:52.994Z,21.05
2023-02-17T17:13:21.403Z,21.04
2023-02-17T17:15:50.039Z,21.06
2023-02-17T17:18:21.382Z,21.06
2023-02-17T17:20:50.689Z,21.06
2023-02-17T17:23:19.948Z,21.03
2023-02-17T17:25:49.745Z,21.02
2023-02-17T17:28:19.953Z,20.96
2023-02-17T17:30:49.420Z,20.94
2023-02-17T17:33:17.845Z,20.94
2023-02-17T17:35:46.317Z,20.93
2023-02-17T17:38:16.348Z,21.00
2023-02-17T17:40:56.565Z,21.05
2023-02-17T17:43:25.059Z,21.06
2023-02-17T17:45:53.577Z,21.08
2023-02-17T17:48:22.183Z,21.16
2023-02-17T17:50:50.718Z,21.17
2023-02-17T17:53:19.123Z,21.21
2023-02-17T17:55:48.361Z,21.24
2023-02-17T17:58:18.166Z,21.27
2023-02-17T18:00:46.640Z,21.36
2023-02-17T18:03:15.111Z,21.43
2023-02-17T18:05:43.554Z,21.48
2023-02-17T18:08:12.412Z,21.46
2023-02-17T18:10:42.581Z,21.43
2023-02-17T18:13:13.315Z,21.39
2023-02-17T18:15:44.410Z,21.36
2023-02-17T18:18:14.165Z,21.35
2023-02-17T18:20:43.044Z,21.39
2023-02-17T18:23:11.468Z,21.42
2023-02-17T18:25:39.899Z,21.39
2023-02-17T18:28:08.372Z,21.43
2023-02-17T18:30:36.871Z,21.43
2023-02-17T18:33:06.637Z,21.41
2023-02-17T18:35:36.046Z,21.39
2023-02-17T18:38:04.528Z,21.38
2023-02-17T18:40:33.132Z,21.39
2023-02-17T18:43:01.569Z,21.39
2023-02-17T18:45:30.082Z,21.39
2023-02-17T18:47:58.547Z,21.41
2023-02-17T18:50:32.895Z,21.47
2023-02-17T18:53:02.568Z,21.48
2023-02-17T18:55:32.122Z,21.47
2023-02-17T18:58:00.566Z,21.45
2023-02-17T19:00:29.408Z,21.44
2023-02-17T19:02:58.140Z,21.43
2023-02-17T19:05:29.643Z,21.37
2023-02-17T19:07:58.402Z,21.33
2023-02-17T19:10:26.866Z,21.28
2023-02-17T19:12:55.449Z,21.25
2023-02-17T19:15:23.937Z,21.21
2023-02-17T19:17:56.406Z,21.16
2023-02-17T19:20:27.365Z,21.11
2023-02-17T19:22:57.118Z,21.06
2023-02-17T19:25:25.875Z,21.07
2023-02-17T19:27:54.274Z,21.07
2023-02-17T19:30:22.945Z,21.07
2023-02-17T19:32:51.388Z,21.06
2023-02-17T19:35:19.895Z,21.02
2023-02-17T19:37:48.360Z,20.99
2023-02-17T19:40:18.341Z,20.95
2023-02-17T19:42:46.762Z,20.93
2023-02-17T19:45:15.183Z,20.95
2023-02-17T19:47:43.568Z,20.96
2023-02-17T19:50:12.126Z,20.97
2023-02-17T19:52:40.572Z,20.97
2023-02-17T19:55:09.971Z,20.96
2023-02-17T19:57:39.811Z,20.95
2023-02-17T20:00:10.054Z,20.91
2023-02-17T20:02:38.927Z,20.89
2023-02-17T20:05:08.451Z,20.87
2023-02-17T20:07:36.877Z,20.80
2023-02-17T20:10:06.267Z,20.76
2023-02-17T20:12:34.745Z,20.74
2023-02-17T20:15:04.702Z,20.77
2023-02-17T20:17:33.150Z,20.78
2023-02-17T20:20:01.654Z,20.79
2023-02-17T20:22:30.066Z,20.77
2023-02-17T20:24:58.490Z,20.75
2023-02-17T20:27:27.028Z,20.72
2023-02-17T20:29:55.541Z,20.71
2023-02-17T20:32:25.534Z,20.68
2023-02-17T20:34:54.001Z,20.64
2023-02-17T20:37:22.534Z,20.60
2023-02-17T20:39:51.494Z,20.59
2023-02-17T20:42:19.873Z,20.56
2023-02-17T20:44:50.250Z,20.54
2023-02-17T20:47:18.765Z,20.51
2023-02-17T20:49:48.904Z,20.47
2023-02-17T20:52:17.387Z,20.47
2023-02-17T20:54:46.315Z,20.43
2023-02-17T20:57:15.589Z,20.40
2023-02-17T20:59:44.021Z,20.38
2023-02-17T21:02:12.746Z,20.37
2023-02-17T21:04:41.249Z,20.37
2023-02-17T21:07:11.829Z,20.37
2023-02-17T21:09:40.302Z,20.36
2023-02-17T21:12:08.993Z,20.34
2023-02-17T21:14:37.422Z,20.34
2023-02-17T21:17:05.941Z,20.32
2023-02-17T21:19:34.423Z,20.30
2023-02-17T21:22:02.826Z,20.28
2023-02-17T21:24:32.568Z,20.27
2023-02-17T21:27:01.116Z,20.25
2023-02-17T21:29:29.546Z,20.22
2023-02-17T21:31:58.089Z,20.19
2023-02-17T21:34:26.482Z,20.15
2023-02-17T21:36:54.975Z,20.11
2023-02-17T21:39:23.401Z,20.09
2023-02-17T21:41:53.938Z,20.04
2023-02-17T21:44:39.909Z,20.02
2023-02-17T21:47:08.374Z,19.99
2023-02-17T21:49:36.850Z,19.97
2023-02-17T21:52:05.381Z,19.94
2023-02-17T21:54:33.816Z,19.92
2023-02-17T21:57:04.537Z,19.91
2023-02-17T21:59:33.169Z,19.90
2023-02-17T22:02:02.068Z,19.88
2023-02-17T22:04:30.546Z,19.87
2023-02-17T22:06:59.010Z,19.85
2023-02-17T22:09:27.411Z,19.83
2023-02-17T22:11:56.167Z,19.83
2023-02-17T22:14:26.031Z,19.81
2023-02-17T22:16:54.532Z,19.80
2023-02-17T22:19:24.801Z,19.79
2023-02-17T22:21:53.328Z,19.77
2023-02-17T22:24:21.805Z,19.76
2023-02-17T22:26:51.386Z,19.76
2023-02-17T22:29:20.006Z,19.74
2023-02-17T22:31:55.592Z,19.73
2023-02-17T22:34:26.079Z,19.71
2023-02-17T22:36:54.480Z,19.70
2023-02-17T22:39:22.909Z,19.68
2023-02-17T22:41:51.256Z,19.68
2023-02-17T22:44:19.733Z,19.66
2023-02-17T22:46:49.597Z,19.66
2023-02-17T22:49:17.984Z,19.64
2023-02-17T22:51:46.365Z,19.64
2023-02-17T22:54:14.758Z,19.64
2023-02-17T22:56:43.195Z,19.62
2023-02-17T22:59:11.683Z,19.62
2023-02-17T23:01:40.158Z,19.61
2023-02-17T23:04:13.749Z,19.60
2023-02-17T23:06:43.441Z,19.60
2023-02-17T23:09:20.773Z,19.60
2023-02-17T23:11:53.739Z,19.59
2023-02-17T23:14:25.600Z,19.59
2023-02-17T23:16:55.667Z,19.58
2023-02-17T23:19:25.607Z,19.57
2023-02-17T23:21:56.673Z,19.56
2023-02-17T23:24:27.222Z,19.56
2023-02-17T23:26:57.398Z,19.55
2023-02-17T23:29:25.988Z,19.55
2023-02-17T23:31:54.507Z,19.54
2023-02-17T23:34:23.073Z,19.54
2023-02-17T23:36:52.945Z,19.53
2023-02-17T23:39:21.474Z,19.52
2023-02-17T23:41:50.065Z,19.53
2023-02-17T23:44:18.839Z,19.52
2023-02-17T23:46:47.601Z,19.51
2023-02-17T23:49:17.611Z,19.51
2023-02-17T23:51:47.275Z,19.50
2023-02-17T23:54:17.134Z,19.49
2023-02-17T23:56:45.784Z,19.49
2023-02-17T23:59:14.414Z,19.49
